createdAt,value
2018-05-11T00:01:18.373Z,84.40
2018-05-11T00:03:46.716Z,76.43
2018-05-11T00:06:14.290Z,76.73
2018-05-11T00:08:41.855Z,68.63
2018-05-11T00:11:09.429Z,80.15
2018-05-11T00:13:36.989Z,71.77
2018-05-11T00:16:04.510Z,67.20
2018-05-11T00:18:32.831Z,64.60
2018-05-11T00:21:00.364Z,60.10
2018-05-11T00:23:27.949Z,53.93
2018-05-11T00:25:56.418Z,59.63
2018-05-11T00:28:24.735Z,63.30
2018-05-11T00:30:52.279Z,60.50
2018-05-11T00:33:19.831Z,65.10
2018-05-11T00:35:48.172Z,58.10
2018-05-11T00:38:15.779Z,65.20
2018-05-11T00:40:44.077Z,67.87
2018-05-11T00:43:11.631Z,61.17
2018-05-11T00:45:39.155Z,62.63
2018-05-11T00:48:06.720Z,62.67
2018-05-11T00:50:34.268Z,67.80
2018-05-11T00:53:01.828Z,71.20
2018-05-11T00:55:43.948Z,70.27
2018-05-11T00:58:12.292Z,51.30
2018-05-11T01:00:39.810Z,56.37
2018-05-11T01:03:07.375Z,54.77
2018-05-11T01:05:34.915Z,54.57
2018-05-11T01:08:02.471Z,51.23
2018-05-11T01:10:29.995Z,54.00
2018-05-11T01:12:58.425Z,51.17
2018-05-11T01:15:26.840Z,49.30
2018-05-11T01:17:55.940Z,48.87
2018-05-11T01:20:24.256Z,45.70
2018-05-11T01:22:52.533Z,46.50
2018-05-11T01:25:20.072Z,52.47
2018-05-11T01:27:47.629Z,41.93
2018-05-11T01:30:15.223Z,42.70
2018-05-11T01:32:42.796Z,43.80
2018-05-11T01:35:10.322Z,55.63
2018-05-11T01:37:37.865Z,44.43
2018-05-11T01:40:06.302Z,44.07
2018-05-11T01:42:34.640Z,40.27
2018-05-11T01:45:02.164Z,50.63
2018-05-11T01:47:29.713Z,45.17
2018-05-11T01:49:58.486Z,44.13
2018-05-11T01:52:26.779Z,47.40
2018-05-11T01:54:55.090Z,47.53
2018-05-11T01:57:22.618Z,48.73
2018-05-11T01:59:50.694Z,52.50
2018-05-11T02:02:18.232Z,46.70
2018-05-11T02:04:45.791Z,47.93
2018-05-11T02:07:14.475Z,45.77
2018-05-11T02:09:42.188Z,50.77
2018-05-11T02:12:09.739Z,45.97
2018-05-11T02:14:37.550Z,56.67
2018-05-11T02:17:05.441Z,42.53
2018-05-11T02:19:33.011Z,53.17
2018-05-11T02:22:00.535Z,45.60
2018-05-11T02:24:28.078Z,49.60
2018-05-11T02:26:55.603Z,46.60
2018-05-11T02:29:23.139Z,63.73
2018-05-11T02:31:50.658Z,55.23
2018-05-11T02:34:18.209Z,53.73
2018-05-11T02:36:46.507Z,66.50
2018-05-11T02:39:14.063Z,59.03
2018-05-11T02:41:41.595Z,50.67
2018-05-11T02:44:09.158Z,51.65
2018-05-11T02:46:36.702Z,54.43
2018-05-11T02:49:04.255Z,63.30
2018-05-11T02:51:31.839Z,65.27
2018-05-11T02:54:00.260Z,63.80
2018-05-11T02:56:27.774Z,57.63
2018-05-11T02:58:55.438Z,59.13
2018-05-11T03:01:22.988Z,52.97
2018-05-11T03:03:50.547Z,71.33
2018-05-11T03:06:18.076Z,59.03
2018-05-11T03:08:45.627Z,60.13
2018-05-11T03:11:13.171Z,71.37
2018-05-11T03:13:40.745Z,58.90
2018-05-11T03:16:08.275Z,63.67
2018-05-11T03:18:35.938Z,71.07
2018-05-11T03:21:04.165Z,72.73
2018-05-11T03:23:31.694Z,65.20
2018-05-11T03:26:00.580Z,69.28
2018-05-11T03:28:28.099Z,80.37
2018-05-11T03:30:55.647Z,64.43
2018-05-11T03:33:23.593Z,68.53
2018-05-11T03:35:51.299Z,75.57
2018-05-11T03:38:18.832Z,55.50
2018-05-11T03:40:46.382Z,66.43
2018-05-11T03:43:13.909Z,65.50
2018-05-11T03:45:41.555Z,72.77
2018-05-11T03:48:09.074Z,64.23
2018-05-11T03:50:36.636Z,64.70
2018-05-11T03:53:04.183Z,64.73
2018-05-11T03:55:31.726Z,72.20
2018-05-11T03:57:59.238Z,65.47
2018-05-11T04:00:26.807Z,59.80
2018-05-11T04:03:06.294Z,54.87
2018-05-11T04:05:46.302Z,54.70
2018-05-11T04:08:26.505Z,50.07
2018-05-11T04:10:54.048Z,67.90
2018-05-11T04:13:21.634Z,55.47
2018-05-11T04:15:49.174Z,54.77
2018-05-11T04:18:16.689Z,52.27
2018-05-11T04:20:44.316Z,64.70
2018-05-11T04:23:11.766Z,55.07
2018-05-11T04:25:39.338Z,59.00
2018-05-11T04:28:06.947Z,52.65
2018-05-11T04:30:34.511Z,53.00
2018-05-11T04:33:02.053Z,61.63
2018-05-11T04:35:31.482Z,64.23
2018-05-11T04:37:59.056Z,65.93
2018-05-11T04:40:27.381Z,69.30
2018-05-11T04:42:54.922Z,74.87
2018-05-11T04:45:22.609Z,64.10
2018-05-11T04:47:50.084Z,74.40
2018-05-11T04:50:18.549Z,69.83
2018-05-11T04:52:46.070Z,59.60
2018-05-11T04:55:13.610Z,74.13
2018-05-11T04:57:41.196Z,71.60
2018-05-11T05:00:08.852Z,63.30
2018-05-11T05:02:36.455Z,76.60
2018-05-11T05:05:04.020Z,55.77
2018-05-11T05:07:31.563Z,86.30
2018-05-11T05:09:59.098Z,74.03
2018-05-11T05:12:26.756Z,76.47
2018-05-11T05:14:55.255Z,64.10
2018-05-11T05:17:22.808Z,54.30
2018-05-11T05:19:50.560Z,56.83
2018-05-11T05:22:19.027Z,52.67
2018-05-11T05:24:46.578Z,62.17
2018-05-11T05:27:15.185Z,60.17
2018-05-11T05:29:42.723Z,55.20
2018-05-11T05:32:10.366Z,70.07
2018-05-11T05:34:37.960Z,61.25
2018-05-11T05:37:05.494Z,52.57
2018-05-11T05:39:34.757Z,49.90
2018-05-11T05:42:03.256Z,48.13
2018-05-11T05:44:30.836Z,48.43
2018-05-11T05:46:59.173Z,52.17
2018-05-11T05:49:26.768Z,44.60
2018-05-11T05:51:54.327Z,48.03
2018-05-11T05:54:21.999Z,50.13
2018-05-11T05:56:51.413Z,53.70
2018-05-11T05:59:19.712Z,58.83
2018-05-11T06:01:47.288Z,52.67
2018-05-11T06:04:14.818Z,47.53
2018-05-11T06:06:42.367Z,52.63
2018-05-11T06:09:09.913Z,46.47
2018-05-11T06:11:37.476Z,49.50
2018-05-11T06:14:05.007Z,46.07
2018-05-11T06:16:32.565Z,45.57
2018-05-11T06:19:00.092Z,52.40
2018-05-11T06:21:27.648Z,46.17
2018-05-11T06:23:55.214Z,43.57
2018-05-11T06:26:22.805Z,54.53
2018-05-11T06:28:51.113Z,54.93
2018-05-11T06:31:18.676Z,52.17
2018-05-11T06:33:46.198Z,47.60
2018-05-11T06:36:15.013Z,56.80
2018-05-11T06:38:42.529Z,61.47
2018-05-11T06:41:10.081Z,57.13
2018-05-11T06:43:38.441Z,58.80
2018-05-11T06:46:06.136Z,52.07
2018-05-11T06:48:34.405Z,54.17
2018-05-11T06:51:01.972Z,48.50
2018-05-11T06:53:29.519Z,66.73
2018-05-11T06:55:57.052Z,58.57
2018-05-11T06:58:24.905Z,62.53
2018-05-11T07:00:52.429Z,53.13
2018-05-11T07:03:19.984Z,68.70
2018-05-11T07:05:47.560Z,50.77
2018-05-11T07:08:15.102Z,56.67
2018-05-11T07:10:42.618Z,54.33
2018-05-11T07:13:10.182Z,50.13
2018-05-11T07:15:37.719Z,56.20
2018-05-11T07:18:06.277Z,53.60
2018-05-11T07:20:33.811Z,48.37
2018-05-11T07:23:01.429Z,51.87
2018-05-11T07:25:28.942Z,46.57
2018-05-11T07:27:56.489Z,48.53
2018-05-11T07:30:24.073Z,51.57
2018-05-11T07:32:51.626Z,61.67
2018-05-11T07:35:19.233Z,49.95
2018-05-11T07:37:47.613Z,48.57
2018-05-11T07:40:15.201Z,52.60
2018-05-11T07:42:42.760Z,52.50
2018-05-11T07:45:10.331Z,57.93
2018-05-11T07:47:38.696Z,67.10
2018-05-11T07:50:06.210Z,50.73
2018-05-11T07:52:34.282Z,50.07
2018-05-11T07:55:01.811Z,56.93
2018-05-11T07:57:29.464Z,61.20
2018-05-11T07:59:56.991Z,50.77
2018-05-11T08:02:24.535Z,63.83
2018-05-11T08:04:52.095Z,41.70
2018-05-11T08:07:19.714Z,41.97
2018-05-11T08:09:47.318Z,48.20
2018-05-11T08:12:14.867Z,51.43
2018-05-11T08:14:43.148Z,52.23
2018-05-11T08:17:10.777Z,54.50
2018-05-11T08:19:39.064Z,51.90
2018-05-11T08:22:07.892Z,59.83
2018-05-11T08:24:35.447Z,52.60
2018-05-11T08:27:03.742Z,62.93
2018-05-11T08:29:31.308Z,40.50
2018-05-11T08:31:58.839Z,47.27
2018-05-11T08:34:26.420Z,38.57
2018-05-11T08:36:53.947Z,44.17
2018-05-11T08:39:21.590Z,49.63
2018-05-11T08:41:49.871Z,52.90
2018-05-11T08:44:17.476Z,49.83
2018-05-11T08:46:45.046Z,47.20
2018-05-11T08:49:12.613Z,40.80
2018-05-11T08:51:40.135Z,34.07
2018-05-11T08:54:08.877Z,28.42
2018-05-11T08:56:36.503Z,40.47
2018-05-11T08:59:04.076Z,40.30
2018-05-11T09:01:31.635Z,34.40
2018-05-11T09:03:59.966Z,42.00
2018-05-11T09:06:29.707Z,29.50
2018-05-11T09:08:57.262Z,40.73
2018-05-11T09:11:24.794Z,46.43
2018-05-11T09:13:53.569Z,37.43
2018-05-11T09:16:21.091Z,53.27
2018-05-11T09:18:48.664Z,38.37
2018-05-11T09:21:17.009Z,43.67
2018-05-11T09:23:44.590Z,47.63
2018-05-11T09:26:12.889Z,37.33
2018-05-11T09:28:40.440Z,43.83
2018-05-11T09:31:08.886Z,36.80
2018-05-11T09:33:37.195Z,39.70
2018-05-11T09:36:04.857Z,36.67
2018-05-11T09:38:32.407Z,42.73
2018-05-11T09:41:00.029Z,33.60
2018-05-11T09:43:27.591Z,34.23
2018-05-11T09:45:55.154Z,38.10
2018-05-11T09:48:22.717Z,35.53
2018-05-11T09:50:51.019Z,42.60
2018-05-11T09:53:18.688Z,36.70
2018-05-11T09:55:46.243Z,47.35
2018-05-11T09:58:13.770Z,46.70
2018-05-11T10:00:41.321Z,40.50
2018-05-11T10:03:09.446Z,52.95
2018-05-11T10:05:37.008Z,41.37
2018-05-11T10:08:04.553Z,35.27
2018-05-11T10:10:32.105Z,40.43
2018-05-11T10:13:01.617Z,42.10
2018-05-11T10:15:30.007Z,43.57
2018-05-11T10:17:58.294Z,43.87
2018-05-11T10:20:25.912Z,41.33
2018-05-11T10:22:54.253Z,30.63
2018-05-11T10:25:21.791Z,35.50
2018-05-11T10:27:49.352Z,31.20
2018-05-11T10:30:18.013Z,31.03
2018-05-11T10:32:46.333Z,34.80
2018-05-11T10:35:13.883Z,34.53
2018-05-11T10:37:41.419Z,37.53
2018-05-11T10:40:08.994Z,34.63
2018-05-11T10:42:36.623Z,39.73
2018-05-11T10:45:04.347Z,35.90
2018-05-11T10:47:32.023Z,38.90
2018-05-11T10:49:59.581Z,42.43
2018-05-11T10:52:27.114Z,35.87
2018-05-11T10:54:55.620Z,34.97
2018-05-11T10:57:23.937Z,31.90
2018-05-11T10:59:51.513Z,30.80
2018-05-11T11:02:19.110Z,32.03
2018-05-11T11:04:46.699Z,32.93
2018-05-11T11:07:14.227Z,24.40
2018-05-11T11:09:41.774Z,23.90
2018-05-11T11:12:09.694Z,40.27
2018-05-11T11:14:37.254Z,38.80
2018-05-11T11:17:04.968Z,27.17
2018-05-11T11:19:33.416Z,26.83
2018-05-11T11:22:01.721Z,30.77
2018-05-11T11:24:29.294Z,23.80
2018-05-11T11:26:56.813Z,20.50
2018-05-11T11:29:24.363Z,23.50
2018-05-11T11:31:51.970Z,25.77
2018-05-11T11:34:20.330Z,27.03
2018-05-11T11:36:47.921Z,29.03
2018-05-11T11:39:16.220Z,27.17
2018-05-11T11:41:44.571Z,24.03
2018-05-11T11:44:13.182Z,33.78
2018-05-11T11:46:40.775Z,24.80
2018-05-11T11:49:08.302Z,27.07
2018-05-11T11:51:35.903Z,32.77
2018-05-11T11:54:04.585Z,26.37
2018-05-11T11:56:32.209Z,23.77
2018-05-11T11:58:59.711Z,31.70
2018-05-11T12:01:27.275Z,28.48
2018-05-11T12:03:54.811Z,27.87
2018-05-11T12:06:22.472Z,20.40
2018-05-11T12:08:50.071Z,31.77
2018-05-11T12:11:17.577Z,37.50
2018-05-11T12:13:45.861Z,25.83
2018-05-11T12:16:13.402Z,31.13
2018-05-11T12:18:41.767Z,26.20
2018-05-11T12:21:09.335Z,24.80
2018-05-11T12:23:36.869Z,23.33
2018-05-11T12:26:04.441Z,23.60
2018-05-11T12:28:31.976Z,23.53
2018-05-11T12:30:59.524Z,21.50
2018-05-11T12:33:27.059Z,25.27
2018-05-11T12:35:54.630Z,21.33
2018-05-11T12:38:22.368Z,27.00
2018-05-11T12:40:50.088Z,27.63
2018-05-11T12:43:17.603Z,26.70
2018-05-11T12:45:45.942Z,27.10
2018-05-11T12:48:14.558Z,25.30
2018-05-11T12:50:42.111Z,37.83
2018-05-11T12:53:09.650Z,29.60
2018-05-11T12:55:38.145Z,32.10
2018-05-11T12:58:05.678Z,31.47
2018-05-11T13:00:33.222Z,36.13
2018-05-11T13:03:01.663Z,26.67
2018-05-11T13:05:29.196Z,34.13
2018-05-11T13:07:57.514Z,35.33
2018-05-11T13:10:25.049Z,28.10
2018-05-11T13:12:52.719Z,30.67
2018-05-11T13:15:20.260Z,27.02
2018-05-11T13:17:48.130Z,33.97
2018-05-11T13:20:15.755Z,40.43
2018-05-11T13:22:43.384Z,37.43
2018-05-11T13:25:10.905Z,34.47
2018-05-11T13:27:38.472Z,34.97
2018-05-11T13:30:06.020Z,39.47
2018-05-11T13:32:33.682Z,34.40
2018-05-11T13:35:01.368Z,36.20
2018-05-11T13:37:29.675Z,36.70
2018-05-11T13:39:57.279Z,36.00
2018-05-11T13:42:24.835Z,40.30
2018-05-11T13:44:52.369Z,37.87
2018-05-11T13:47:20.775Z,37.23
2018-05-11T13:49:48.433Z,59.60
2018-05-11T13:52:16.114Z,38.83
2018-05-11T13:54:43.736Z,36.00
2018-05-11T13:57:11.364Z,35.63
2018-05-11T13:59:38.933Z,32.17
2018-05-11T14:02:06.536Z,30.77
2018-05-11T14:04:34.157Z,35.03
2018-05-11T14:07:02.635Z,31.63
2018-05-11T14:09:30.174Z,34.87
2018-05-11T14:11:57.734Z,33.33
2018-05-11T14:14:25.274Z,31.63
2018-05-11T14:16:52.850Z,34.60
2018-05-11T14:19:20.385Z,29.60
2018-05-11T14:21:53.733Z,35.73
2018-05-11T14:24:21.259Z,32.13
2018-05-11T14:26:49.786Z,30.53
2018-05-11T14:29:18.331Z,32.23
2018-05-11T14:31:46.146Z,30.57
2018-05-11T14:34:14.458Z,29.90
2018-05-11T14:36:42.002Z,31.05
2018-05-11T14:39:10.566Z,33.10
2018-05-11T14:41:39.198Z,29.60
2018-05-11T14:44:07.506Z,27.70
2018-05-11T14:46:35.039Z,24.77
2018-05-11T14:49:02.595Z,24.10
2018-05-11T14:51:30.113Z,26.07
2018-05-11T14:53:57.694Z,23.40
2018-05-11T14:56:25.225Z,21.30
2018-05-11T14:58:52.773Z,47.17
2018-05-11T15:01:20.390Z,28.17
2018-05-11T15:03:48.743Z,21.50
2018-05-11T15:06:16.370Z,24.50
2018-05-11T15:08:44.696Z,21.40
2018-05-11T15:11:12.319Z,22.20
2018-05-11T15:13:39.885Z,21.50
2018-05-11T15:16:07.435Z,20.50
2018-05-11T15:18:36.545Z,21.83
2018-05-11T15:21:04.855Z,19.20
2018-05-11T15:23:33.070Z,33.63
2018-05-11T15:26:01.435Z,20.30
2018-05-11T15:28:29.148Z,21.53
2018-05-11T15:30:56.670Z,19.60
2018-05-11T15:33:24.352Z,18.87
2018-05-11T15:35:51.989Z,18.95
2018-05-11T15:38:19.574Z,19.93
2018-05-11T15:40:47.854Z,21.53
2018-05-11T15:43:15.390Z,19.37
2018-05-11T15:45:42.935Z,21.17
2018-05-11T15:48:10.483Z,17.97
2018-05-11T15:50:39.719Z,18.30
2018-05-11T15:53:09.502Z,16.10
2018-05-11T15:55:37.357Z,19.50
2018-05-11T15:58:04.901Z,22.48
2018-05-11T16:00:32.438Z,23.73
2018-05-11T16:03:00.011Z,25.43
2018-05-11T16:05:27.595Z,25.03
2018-05-11T16:07:55.138Z,21.67
2018-05-11T16:10:24.414Z,23.70
2018-05-11T16:12:51.997Z,31.40
2018-05-11T16:15:19.535Z,21.07
2018-05-11T16:17:47.690Z,26.83
2018-05-11T16:20:15.256Z,28.90
2018-05-11T16:22:42.845Z,27.10
2018-05-11T16:25:11.080Z,34.63
2018-05-11T16:27:38.645Z,35.20
2018-05-11T16:30:06.960Z,27.47
2018-05-11T16:32:34.701Z,30.17
2018-05-11T16:35:03.439Z,30.50
2018-05-11T16:37:31.805Z,24.23
2018-05-11T16:39:59.365Z,29.70
2018-05-11T16:42:27.815Z,31.10
2018-05-11T16:44:55.381Z,21.70
2018-05-11T16:47:25.594Z,23.97
2018-05-11T16:49:53.159Z,20.07
2018-05-11T16:52:20.694Z,28.47
2018-05-11T16:54:48.230Z,28.80
2018-05-11T16:57:16.811Z,26.03
2018-05-11T16:59:44.346Z,29.50
2018-05-11T17:02:11.977Z,29.90
2018-05-11T17:04:39.608Z,26.00
2018-05-11T17:07:07.140Z,31.50
2018-05-11T17:09:35.474Z,27.00
2018-05-11T17:12:02.996Z,44.10
2018-05-11T17:14:30.539Z,52.17
2018-05-11T17:16:58.054Z,30.17
2018-05-11T17:19:25.600Z,27.50
2018-05-11T17:21:53.205Z,29.67
2018-05-11T17:24:20.754Z,33.17
2018-05-11T17:26:49.175Z,29.90
2018-05-11T17:29:16.758Z,35.97
2018-05-11T17:31:44.280Z,30.37
2018-05-11T17:34:13.231Z,29.33
2018-05-11T17:36:41.819Z,27.30
2018-05-11T17:39:09.605Z,38.10
2018-05-11T17:41:37.134Z,25.93
2018-05-11T17:44:04.695Z,24.30
2018-05-11T17:46:32.286Z,30.73
2018-05-11T17:48:59.832Z,40.87
2018-05-11T17:51:27.356Z,40.90
2018-05-11T17:53:54.923Z,163.87
2018-05-11T17:56:22.573Z,31.47
2018-05-11T17:58:50.251Z,45.03
2018-05-11T18:01:17.840Z,33.70
2018-05-11T18:03:45.524Z,28.10
2018-05-11T18:06:15.051Z,23.13
2018-05-11T18:08:43.469Z,23.48
2018-05-11T18:11:11.014Z,31.43
2018-05-11T18:13:39.814Z,34.10
2018-05-11T18:16:07.372Z,30.13
2018-05-11T18:18:34.914Z,18.20
2018-05-11T18:21:03.959Z,27.60
2018-05-11T18:23:31.474Z,25.13
2018-05-11T18:25:59.159Z,25.80
2018-05-11T18:28:26.687Z,24.40
2018-05-11T18:30:54.278Z,34.35
2018-05-11T18:33:23.941Z,31.53
2018-05-11T18:35:51.586Z,31.87
2018-05-11T18:38:19.121Z,25.60
2018-05-11T18:40:51.842Z,33.03
2018-05-11T18:43:20.132Z,29.90
2018-05-11T18:45:47.674Z,25.55
2018-05-11T18:48:15.215Z,32.47
2018-05-11T18:50:44.265Z,39.45
2018-05-11T18:53:12.893Z,32.40
2018-05-11T18:55:40.129Z,33.50
2018-05-11T18:58:07.688Z,32.00
2018-05-11T19:00:35.336Z,82.00
2018-05-11T19:03:03.045Z,115.23
2018-05-11T19:05:30.624Z,69.50
2018-05-11T19:07:58.150Z,46.90
2018-05-11T19:10:25.782Z,31.03
2018-05-11T19:12:53.325Z,28.73
2018-05-11T19:15:20.891Z,55.00
2018-05-11T19:17:48.452Z,32.03
2018-05-11T19:20:16.402Z,122.97
2018-05-11T19:22:44.842Z,50.95
2018-05-11T19:25:12.517Z,48.80
2018-05-11T19:27:40.138Z,37.50
2018-05-11T19:30:08.826Z,41.00
2018-05-11T19:32:36.402Z,49.60
2018-05-11T19:35:04.008Z,45.30
2018-05-11T19:37:31.663Z,53.40
2018-05-11T19:39:59.210Z,80.53
2018-05-11T19:42:28.298Z,33.37
2018-05-11T19:44:55.837Z,47.10
2018-05-11T19:47:23.396Z,39.93
2018-05-11T19:49:51.026Z,37.38
2018-05-11T19:52:18.565Z,33.03
2018-05-11T19:54:47.228Z,31.97
2018-05-11T19:57:15.148Z,36.80
2018-05-11T19:59:42.626Z,28.93
2018-05-11T20:02:10.166Z,37.10
2018-05-11T20:04:37.830Z,29.80
2018-05-11T20:07:05.376Z,39.87
2018-05-11T20:09:33.015Z,34.37
2018-05-11T20:12:00.996Z,38.00
2018-05-11T20:14:28.514Z,31.65
2018-05-11T20:16:56.132Z,33.88
2018-05-11T20:19:23.805Z,32.80
2018-05-11T20:21:51.358Z,27.50
2018-05-11T20:24:18.949Z,27.07
2018-05-11T20:26:46.592Z,36.10
2018-05-11T20:29:14.905Z,32.80
2018-05-11T20:31:42.464Z,34.23
2018-05-11T20:34:10.008Z,40.30
2018-05-11T20:36:37.553Z,39.17
2018-05-11T20:39:05.908Z,37.73
2018-05-11T20:41:33.544Z,37.17
2018-05-11T20:44:00.986Z,37.20
2018-05-11T20:46:28.530Z,33.13
2018-05-11T20:48:56.060Z,32.50
2018-05-11T20:51:23.625Z,40.37
2018-05-11T20:53:51.207Z,32.87
2018-05-11T20:56:19.508Z,30.57
2018-05-11T20:58:47.059Z,38.33
2018-05-11T21:01:14.582Z,33.80
2018-05-11T21:03:42.168Z,34.90
2018-05-11T21:06:12.030Z,41.80
2018-05-11T21:08:39.711Z,33.63
2018-05-11T21:11:07.239Z,37.47
2018-05-11T21:13:34.790Z,36.13
2018-05-11T21:16:02.452Z,40.80
2018-05-11T21:18:30.057Z,43.07
2018-05-11T21:20:58.337Z,37.93
2018-05-11T21:23:25.961Z,41.77
2018-05-11T21:25:53.444Z,37.80
2018-05-11T21:28:20.993Z,37.80
2018-05-11T21:30:48.537Z,41.70
2018-05-11T21:33:17.021Z,37.80
2018-05-11T21:35:44.578Z,35.13
2018-05-11T21:38:12.117Z,38.60
2018-05-11T21:40:40.814Z,37.17
2018-05-11T21:43:09.225Z,42.80
2018-05-11T21:45:36.746Z,38.00
2018-05-11T21:48:04.287Z,37.33
2018-05-11T21:50:32.461Z,37.77
2018-05-11T21:53:00.934Z,41.63
2018-05-11T21:55:28.454Z,39.77
2018-05-11T21:57:55.991Z,40.03
2018-05-11T22:00:24.289Z,39.67
2018-05-11T22:02:51.879Z,43.55
2018-05-11T22:05:20.216Z,43.67
2018-05-11T22:07:47.764Z,44.17
2018-05-11T22:10:15.319Z,38.53
2018-05-11T22:12:43.610Z,38.83
2018-05-11T22:15:11.153Z,41.40
2018-05-11T22:17:39.602Z,43.43
2018-05-11T22:20:07.909Z,42.80
2018-05-11T22:22:35.442Z,47.77
2018-05-11T22:25:03.004Z,51.85
2018-05-11T22:27:30.551Z,49.43
2018-05-11T22:29:58.103Z,41.10
2018-05-11T22:32:25.715Z,40.40
2018-05-11T22:34:53.273Z,43.13
2018-05-11T22:37:20.796Z,42.80
2018-05-11T22:39:48.545Z,45.67
2018-05-11T22:42:16.086Z,42.08
2018-05-11T22:44:43.720Z,43.40
2018-05-11T22:47:12.010Z,40.73
2018-05-11T22:49:39.602Z,47.77
2018-05-11T22:52:07.917Z,44.50
2018-05-11T22:54:36.848Z,45.07
2018-05-11T22:57:04.417Z,45.60
2018-05-11T22:59:32.723Z,50.57
2018-05-11T23:02:00.310Z,38.60
2018-05-11T23:04:27.875Z,47.40
2018-05-11T23:06:55.416Z,48.47
2018-05-11T23:09:23.719Z,46.70
2018-05-11T23:11:51.252Z,49.03
2018-05-11T23:14:18.803Z,51.50
2018-05-11T23:16:46.418Z,49.03
2018-05-11T23:19:13.984Z,64.10
2018-05-11T23:21:41.508Z,43.83
2018-05-11T23:24:09.815Z,53.83
2018-05-11T23:26:37.348Z,52.17
2018-05-11T23:29:04.897Z,51.67
2018-05-11T23:31:32.428Z,45.70
2018-05-11T23:33:59.966Z,45.73
2018-05-11T23:36:27.487Z,54.50
2018-05-11T23:38:55.067Z,54.13
2018-05-11T23:41:22.599Z,44.97
2018-05-11T23:43:50.139Z,51.83
2018-05-11T23:46:17.654Z,50.70
2018-05-11T23:48:45.966Z,48.53
2018-05-11T23:51:15.194Z,49.60
2018-05-11T23:53:43.495Z,57.93
2018-05-11T23:56:11.017Z,51.73
2018-05-11T23:58:38.818Z,51.90
